Time;durP1;ratioP1;P1;durP2;ratioP2;P2;SDS_P1;SDS_P2;PMS_P1;PMS_P2;Temp;Humidity;BMP_temperature;BMP_pressure;BME280_temperature;BME280_humidity;BME280_pressure;Samples;Min_cycle;Max_cycle;Signal;HPM_P1;HPM_P2
2024/01/21 00:00:52;;;;;;;8.93;6.90;;;;;;;;;;5056275;28;20522;-69
2024/01/21 00:03:18;;;;;;;9.37;5.63;;;;;;;;;;5056479;28;20207;-69
2024/01/21 00:05:44;;;;;;;8.77;6.00;;;;;;;;;;5038338;28;20273;-69
2024/01/21 00:08:10;;;;;;;7.00;4.43;;;;;;;;;;5056744;28;20460;-69
2024/01/21 00:10:36;;;;;;;9.23;5.80;;;;;;;;;;5038311;28;20178;-69
2024/01/21 00:13:02;;;;;;;7.67;5.07;;;;;;;;;;5038768;28;20186;-68
2024/01/21 00:17:54;;;;;;;6.67;4.53;;;;;;;;;;5072370;22;20469;-66
2024/01/21 00:20:20;;;;;;;7.17;5.33;;;;;;;;;;5054406;28;20946;-66
2024/01/21 00:22:46;;;;;;;9.47;5.00;;;;;;;;;;5053534;28;20742;-66
2024/01/21 00:25:12;;;;;;;7.50;4.83;;;;;;;;;;5053612;28;20170;-68
2024/01/21 00:27:38;;;;;;;6.30;4.67;;;;;;;;;;5054584;28;20194;-68
2024/01/21 00:30:04;;;;;;;7.30;5.07;;;;;;;;;;5053743;28;20541;-68
2024/01/21 00:32:30;;;;;;;11.10;6.83;;;;;;;;;;5054886;28;20409;-66
2024/01/21 00:34:56;;;;;;;15.90;7.63;;;;;;;;;;5054776;28;20419;-68
2024/01/21 00:37:22;;;;;;;15.17;8.30;;;;;;;;;;5054332;28;20281;-68
2024/01/21 00:39:48;;;;;;;9.37;5.30;;;;;;;;;;5054885;28;20190;-70
2024/01/21 00:42:14;;;;;;;6.77;4.50;;;;;;;;;;5067171;28;20718;-69
2024/01/21 00:44:40;;;;;;;5.23;4.03;;;;;;;;;;5071623;28;20551;-68
2024/01/21 00:47:06;;;;;;;8.47;4.63;;;;;;;;;;5071997;28;20198;-67
2024/01/21 00:49:32;;;;;;;4.87;3.70;;;;;;;;;;5072825;28;20178;-67
2024/01/21 00:51:58;;;;;;;5.50;4.27;;;;;;;;;;5040330;28;20205;-68
2024/01/21 00:54:25;;;;;;;6.40;3.57;;;;;;;;;;5058411;28;20875;-67
2024/01/21 00:56:50;;;;;;;6.37;4.37;;;;;;;;;;5055780;28;20273;-68
2024/01/21 00:59:17;;;;;;;6.53;4.23;;;;;;;;;;5037369;28;20859;-68
2024/01/21 01:01:42;;;;;;;7.50;4.30;;;;;;;;;;5055046;28;20289;-67
2024/01/21 01:04:08;;;;;;;6.30;4.40;;;;;;;;;;5037180;28;20433;-67
2024/01/21 01:06:34;;;;;;;8.00;4.83;;;;;;;;;;5036270;28;20198;-67
2024/01/21 01:09:00;;;;;;;10.60;4.53;;;;;;;;;;5054422;28;20181;-67
2024/01/21 01:11:27;;;;;;;8.57;4.37;;;;;;;;;;5036395;28;20582;-67
2024/01/21 01:13:53;;;;;;;10.43;4.63;;;;;;;;;;5055002;28;20175;-67
2024/01/21 01:16:19;;;;;;;6.60;4.53;;;;;;;;;;5035864;28;20455;-67
2024/01/21 01:18:45;;;;;;;7.70;4.97;;;;;;;;;;5053844;28;20174;-68
2024/01/21 01:21:12;;;;;;;9.83;4.87;;;;;;;;;;5036054;28;20265;-68
2024/01/21 01:23:38;;;;;;;13.77;7.63;;;;;;;;;;5053643;28;21032;-68
2024/01/21 01:26:04;;;;;;;10.43;4.40;;;;;;;;;;5053456;28;20433;-67
2024/01/21 01:28:31;;;;;;;15.17;8.43;;;;;;;;;;5053536;28;20424;-67
2024/01/21 01:30:57;;;;;;;11.43;6.37;;;;;;;;;;5035637;28;20445;-67
2024/01/21 01:33:24;;;;;;;9.37;5.30;;;;;;;;;;5053677;28;20817;-67
2024/01/21 01:35:50;;;;;;;11.23;6.77;;;;;;;;;;5053617;28;20487;-68
2024/01/21 01:38:16;;;;;;;9.30;5.67;;;;;;;;;;5035578;28;20496;-68
2024/01/21 01:40:42;;;;;;;11.37;6.03;;;;;;;;;;5053533;28;20194;-68
2024/01/21 01:43:09;;;;;;;8.60;5.97;;;;;;;;;;5035342;28;20548;-68
2024/01/21 01:45:35;;;;;;;10.07;6.00;;;;;;;;;;5053556;28;20887;-67
2024/01/21 01:48:02;;;;;;;10.77;5.73;;;;;;;;;;5053816;28;20895;-67
2024/01/21 01:50:30;;;;;;;9.70;5.70;;;;;;;;;;5053312;28;20895;-68
2024/01/21 01:52:56;;;;;;;8.60;5.70;;;;;;;;;;5053434;28;20491;-67
2024/01/21 01:55:22;;;;;;;8.07;5.60;;;;;;;;;;5053020;28;20494;-67
2024/01/21 01:57:48;;;;;;;9.53;5.87;;;;;;;;;;5053415;28;20332;-67
2024/01/21 02:00:15;;;;;;;8.33;5.80;;;;;;;;;;5053319;28;20420;-68
2024/01/21 02:02:41;;;;;;;7.77;5.20;;;;;;;;;;5035376;28;20464;-68
2024/01/21 02:05:08;;;;;;;11.60;6.17;;;;;;;;;;5036062;28;20475;-67
2024/01/21 02:07:34;;;;;;;9.80;5.67;;;;;;;;;;5053073;28;20456;-68
2024/01/21 02:10:01;;;;;;;11.60;6.73;;;;;;;;;;5035010;28;20699;-67
2024/01/21 02:12:27;;;;;;;8.27;5.87;;;;;;;;;;5052830;28;20412;-67
2024/01/21 02:14:53;;;;;;;8.57;6.23;;;;;;;;;;5053250;28;20775;-67
2024/01/21 02:17:19;;;;;;;9.77;6.27;;;;;;;;;;5034902;28;20210;-68
2024/01/21 02:19:45;;;;;;;10.03;6.50;;;;;;;;;;5052702;28;20669;-68
2024/01/21 02:22:12;;;;;;;9.00;6.20;;;;;;;;;;5053122;28;20500;-67
2024/01/21 02:24:38;;;;;;;9.73;5.90;;;;;;;;;;5035161;28;20316;-68
2024/01/21 02:27:04;;;;;;;8.40;5.60;;;;;;;;;;5053052;28;20428;-68
2024/01/21 02:29:30;;;;;;;13.90;6.93;;;;;;;;;;5053312;28;20420;-68
2024/01/21 02:31:57;;;;;;;9.13;6.43;;;;;;;;;;5052963;28;20466;-68
2024/01/21 02:34:23;;;;;;;11.40;6.77;;;;;;;;;;5052927;28;20507;-68
2024/01/21 02:36:49;;;;;;;11.30;6.60;;;;;;;;;;5052804;28;20995;-68
2024/01/21 02:39:15;;;;;;;9.67;5.87;;;;;;;;;;5052857;28;20189;-68
2024/01/21 02:41:41;;;;;;;11.00;7.23;;;;;;;;;;5052518;28;20214;-68
2024/01/21 02:44:07;;;;;;;11.93;6.57;;;;;;;;;;5052868;28;20170;-68
2024/01/21 02:46:33;;;;;;;9.37;6.90;;;;;;;;;;5034628;28;20206;-68
2024/01/21 02:48:59;;;;;;;9.87;6.77;;;;;;;;;;5035107;28;20973;-68
2024/01/21 02:51:25;;;;;;;10.73;6.77;;;;;;;;;;5052527;28;20664;-68
2024/01/21 02:53:52;;;;;;;11.43;6.77;;;;;;;;;;5038736;28;20286;-67
2024/01/21 02:56:22;;;;;;;11.90;7.33;;;;;;;;;;5038689;28;20432;-68
2024/01/21 02:58:51;;;;;;;9.23;6.17;;;;;;;;;;5056580;28;20476;-68
2024/01/21 03:01:18;;;;;;;11.13;7.20;;;;;;;;;;5056661;28;20455;-67
2024/01/21 03:03:44;;;;;;;10.43;6.47;;;;;;;;;;5056467;28;20551;-68
2024/01/21 03:06:10;;;;;;;11.00;7.10;;;;;;;;;;5056321;28;20489;-68
2024/01/21 03:08:36;;;;;;;11.80;7.03;;;;;;;;;;5056542;28;20889;-68
2024/01/21 03:11:02;;;;;;;13.00;7.23;;;;;;;;;;5056721;28;20557;-68
2024/01/21 03:13:28;;;;;;;9.57;6.77;;;;;;;;;;5056595;28;20179;-68
2024/01/21 03:15:54;;;;;;;13.33;7.33;;;;;;;;;;5056018;28;20993;-67
2024/01/21 03:18:20;;;;;;;11.17;7.20;;;;;;;;;;5038088;28;20190;-66
2024/01/21 03:20:47;;;;;;;10.53;6.93;;;;;;;;;;5038027;28;20570;-68
2024/01/21 03:23:13;;;;;;;11.80;6.93;;;;;;;;;;5038007;28;20861;-68
2024/01/21 03:25:39;;;;;;;11.63;7.00;;;;;;;;;;5056083;28;20544;-67
2024/01/21 03:28:05;;;;;;;10.60;6.40;;;;;;;;;;5038735;28;20421;-63
2024/01/21 03:30:31;;;;;;;11.73;6.67;;;;;;;;;;5055732;28;20178;-63
2024/01/21 03:32:57;;;;;;;11.83;6.73;;;;;;;;;;5037907;28;20413;-63
2024/01/21 03:35:23;;;;;;;9.83;6.20;;;;;;;;;;5055971;28;20686;-63
2024/01/21 03:37:49;;;;;;;11.83;6.70;;;;;;;;;;5055682;28;20199;-63
2024/01/21 03:40:15;;;;;;;10.03;6.63;;;;;;;;;;5055283;28;20205;-63
2024/01/21 03:42:45;;;;;;;8.77;6.23;;;;;;;;;;5037371;28;20461;-64
2024/01/21 03:45:11;;;;;;;13.07;6.97;;;;;;;;;;5055321;28;20175;-63
2024/01/21 03:47:38;;;;;;;11.10;6.47;;;;;;;;;;5037214;28;20437;-63
2024/01/21 03:50:04;;;;;;;11.53;7.10;;;;;;;;;;5055070;28;20505;-63
2024/01/21 03:52:30;;;;;;;9.30;6.23;;;;;;;;;;5055072;28;20778;-63
2024/01/21 03:54:56;;;;;;;8.97;6.53;;;;;;;;;;5037114;28;20424;-63
2024/01/21 03:57:22;;;;;;;9.53;6.13;;;;;;;;;;5036997;28;20202;-63
2024/01/21 03:59:48;;;;;;;10.17;6.50;;;;;;;;;;5037108;28;20183;-63
2024/01/21 04:02:14;;;;;;;8.83;6.50;;;;;;;;;;5054894;28;20289;-63
2024/01/21 04:04:40;;;;;;;11.03;6.20;;;;;;;;;;5053713;28;20206;-63
2024/01/21 04:07:06;;;;;;;9.30;6.07;;;;;;;;;;5055386;28;20213;-63
2024/01/21 04:09:32;;;;;;;10.53;6.40;;;;;;;;;;5055155;28;20178;-63
2024/01/21 04:11:58;;;;;;;9.50;6.10;;;;;;;;;;5036875;28;20203;-63
2024/01/21 04:14:24;;;;;;;9.40;6.40;;;;;;;;;;5054976;28;20228;-63
2024/01/21 04:16:50;;;;;;;9.47;6.43;;;;;;;;;;5054474;28;20259;-63
2024/01/21 04:19:18;;;;;;;9.37;6.27;;;;;;;;;;5054627;28;20183;-63
2024/01/21 04:21:45;;;;;;;8.30;5.67;;;;;;;;;;5054461;28;20186;-63
2024/01/21 04:24:11;;;;;;;8.90;5.73;;;;;;;;;;5036781;28;20416;-63
2024/01/21 04:26:37;;;;;;;8.97;5.90;;;;;;;;;;5054432;28;20432;-63
2024/01/21 04:29:03;;;;;;;9.70;5.90;;;;;;;;;;5054464;28;20229;-62
2024/01/21 04:31:29;;;;;;;11.47;6.70;;;;;;;;;;5054625;28;20421;-63
2024/01/21 04:33:55;;;;;;;9.60;6.17;;;;;;;;;;5036683;28;20186;-63
2024/01/21 04:36:22;;;;;;;9.97;5.70;;;;;;;;;;5036409;28;20199;-63
2024/01/21 04:38:48;;;;;;;8.67;6.17;;;;;;;;;;5054334;28;20489;-65
2024/01/21 04:41:15;;;;;;;11.10;6.10;;;;;;;;;;5054487;28;20178;-64
2024/01/21 04:43:44;;;;;;;8.33;5.67;;;;;;;;;;5054217;28;20198;-64
2024/01/21 04:46:09;;;;;;;9.30;5.10;;;;;;;;;;5054197;28;20429;-61
2024/01/21 04:48:35;;;;;;;9.27;5.53;;;;;;;;;;5036288;28;20174;-61
2024/01/21 04:51:01;;;;;;;8.00;5.60;;;;;;;;;;5036424;28;20179;-62
2024/01/21 04:53:28;;;;;;;8.27;5.07;;;;;;;;;;5054264;28;20205;-62
2024/01/21 04:55:54;;;;;;;8.50;5.60;;;;;;;;;;5053921;28;20233;-62
2024/01/21 04:58:20;;;;;;;7.60;5.30;;;;;;;;;;5053746;28;20179;-62
2024/01/21 05:00:46;;;;;;;6.07;4.50;;;;;;;;;;5054157;28;20174;-62
2024/01/21 05:03:11;;;;;;;8.17;4.87;;;;;;;;;;5053793;28;20202;-62
2024/01/21 05:05:37;;;;;;;6.87;4.60;;;;;;;;;;5053605;28;20633;-63
2024/01/21 05:08:04;;;;;;;7.83;5.20;;;;;;;;;;5053670;28;20694;-63
2024/01/21 05:10:29;;;;;;;7.40;4.57;;;;;;;;;;5053499;28;20179;-63
2024/01/21 05:12:55;;;;;;;7.60;5.30;;;;;;;;;;5053582;28;20265;-63
2024/01/21 05:15:21;;;;;;;7.57;4.40;;;;;;;;;;5053166;28;20214;-63
2024/01/21 05:17:47;;;;;;;8.17;5.00;;;;;;;;;;5053482;28;20297;-62
2024/01/21 05:20:13;;;;;;;6.57;4.87;;;;;;;;;;5053744;28;20451;-62
2024/01/21 05:22:39;;;;;;;7.90;5.27;;;;;;;;;;5035909;28;20209;-63
2024/01/21 05:25:06;;;;;;;9.30;5.27;;;;;;;;;;5053971;28;20177;-62
2024/01/21 05:27:32;;;;;;;6.33;4.70;;;;;;;;;;5053553;28;20571;-62
2024/01/21 05:29:58;;;;;;;10.63;5.50;;;;;;;;;;5035554;28;20250;-63
2024/01/21 05:32:24;;;;;;;6.70;4.90;;;;;;;;;;5053352;28;20248;-62
2024/01/21 05:34:50;;;;;;;7.67;5.23;;;;;;;;;;5035307;28;20559;-62
2024/01/21 05:37:16;;;;;;;8.67;4.57;;;;;;;;;;5035265;28;20251;-63
2024/01/21 05:39:42;;;;;;;7.27;5.20;;;;;;;;;;5035459;28;20186;-63
2024/01/21 05:42:08;;;;;;;10.87;5.53;;;;;;;;;;5053091;28;20209;-63
2024/01/21 05:44:34;;;;;;;7.20;4.90;;;;;;;;;;5053113;28;20186;-62
2024/01/21 05:47:00;;;;;;;8.87;5.60;;;;;;;;;;5053090;28;20800;-63
2024/01/21 05:49:27;;;;;;;10.07;5.33;;;;;;;;;;5052987;28;20413;-62
2024/01/21 05:51:53;;;;;;;8.60;5.17;;;;;;;;;;5034918;28;20706;-63
2024/01/21 05:54:19;;;;;;;7.83;5.47;;;;;;;;;;5052911;28;20452;-62
2024/01/21 05:56:46;;;;;;;7.90;5.40;;;;;;;;;;5034873;28;20206;-62
2024/01/21 05:59:16;;;;;;;9.37;5.37;;;;;;;;;;5034783;28;20178;-63
2024/01/21 06:01:42;;;;;;;6.50;4.20;;;;;;;;;;5034666;28;20229;-63
2024/01/21 06:04:08;;;;;;;8.67;5.80;;;;;;;;;;5034762;28;20207;-62
2024/01/21 06:06:34;;;;;;;8.50;4.83;;;;;;;;;;5052682;28;20602;-62
2024/01/21 06:09:00;;;;;;;11.73;5.50;;;;;;;;;;5052689;28;20743;-62
2024/01/21 06:11:26;;;;;;;10.23;6.17;;;;;;;;;;5053068;28;20175;-63
2024/01/21 06:13:52;;;;;;;10.00;6.23;;;;;;;;;;5052803;28;20256;-63
2024/01/21 06:16:18;;;;;;;9.30;6.27;;;;;;;;;;5052375;28;20460;-62
2024/01/21 06:18:44;;;;;;;9.50;6.07;;;;;;;;;;5052661;28;20667;-63
2024/01/21 06:21:10;;;;;;;8.43;5.37;;;;;;;;;;5052886;28;20417;-63
2024/01/21 06:23:36;;;;;;;10.87;6.33;;;;;;;;;;5052791;28;20472;-63
2024/01/21 06:26:02;;;;;;;10.43;6.33;;;;;;;;;;5034072;28;20471;-63
2024/01/21 06:28:29;;;;;;;9.27;6.80;;;;;;;;;;5034283;28;20410;-63
2024/01/21 06:30:55;;;;;;;9.90;6.37;;;;;;;;;;5052786;28;20416;-63
2024/01/21 06:33:21;;;;;;;9.87;6.87;;;;;;;;;;5052315;28;20499;-63
2024/01/21 06:35:47;;;;;;;10.33;5.93;;;;;;;;;;5052777;28;20328;-63
2024/01/21 06:38:13;;;;;;;8.80;5.77;;;;;;;;;;5052516;28;20178;-63
2024/01/21 06:40:39;;;;;;;10.07;6.63;;;;;;;;;;5035085;28;20649;-63
2024/01/21 06:43:05;;;;;;;9.70;6.17;;;;;;;;;;5034413;28;20733;-62
2024/01/21 06:45:30;;;;;;;9.73;6.30;;;;;;;;;;5034381;28;20177;-63
2024/01/21 06:47:56;;;;;;;11.13;6.27;;;;;;;;;;5052121;28;20181;-63
2024/01/21 06:50:22;;;;;;;8.83;7.10;;;;;;;;;;5052234;28;20265;-63
2024/01/21 06:52:49;;;;;;;9.40;6.30;;;;;;;;;;5034191;28;20189;-63
2024/01/21 06:55:15;;;;;;;10.37;6.73;;;;;;;;;;5075078;23;20226;-73
2024/01/21 06:57:41;;;;;;;12.13;7.53;;;;;;;;;;5020822;28;20785;-72
2024/01/21 07:00:07;;;;;;;11.10;6.33;;;;;;;;;;5033436;28;20176;-72
2024/01/21 07:02:33;;;;;;;11.83;7.70;;;;;;;;;;5033366;28;20198;-72
2024/01/21 07:04:59;;;;;;;14.60;7.30;;;;;;;;;;5015553;28;20456;-72
2024/01/21 07:07:25;;;;;;;17.17;7.60;;;;;;;;;;5034406;28;20183;-72
2024/01/21 07:09:51;;;;;;;11.10;7.47;;;;;;;;;;5034130;28;20207;-72
2024/01/21 07:12:17;;;;;;;16.57;7.67;;;;;;;;;;5015512;28;20210;-72
2024/01/21 07:14:43;;;;;;;16.00;7.97;;;;;;;;;;5015351;28;20653;-72
2024/01/21 07:17:10;;;;;;;19.03;8.10;;;;;;;;;;5015390;28;20429;-72
2024/01/21 07:19:36;;;;;;;17.27;8.87;;;;;;;;;;5015262;28;20562;-72
2024/01/21 07:22:03;;;;;;;13.57;8.83;;;;;;;;;;5033194;28;20207;-72
2024/01/21 07:24:29;;;;;;;11.77;7.90;;;;;;;;;;5033204;28;20341;-69
2024/01/21 07:26:55;;;;;;;14.77;9.17;;;;;;;;;;5033544;28;20646;-68
2024/01/21 07:29:21;;;;;;;11.47;7.27;;;;;;;;;;5015906;28;20418;-68
2024/01/21 07:31:47;;;;;;;15.73;7.97;;;;;;;;;;5033364;28;20841;-69
2024/01/21 07:34:13;;;;;;;14.70;7.63;;;;;;;;;;5033604;28;20234;-68
2024/01/21 07:36:40;;;;;;;16.60;8.33;;;;;;;;;;5015637;28;20240;-68
2024/01/21 07:39:06;;;;;;;13.63;8.53;;;;;;;;;;5018235;28;20179;-68
2024/01/21 07:41:32;;;;;;;16.23;9.80;;;;;;;;;;5019061;28;20175;-68
2024/01/21 07:43:59;;;;;;;18.60;10.23;;;;;;;;;;5019449;28;20500;-68
2024/01/21 07:46:25;;;;;;;20.63;11.57;;;;;;;;;;5019110;28;20199;-70
2024/01/21 07:48:51;;;;;;;23.40;11.80;;;;;;;;;;5019105;28;20409;-68
2024/01/21 07:51:19;;;;;;;17.80;10.23;;;;;;;;;;5036844;28;20275;-68
2024/01/21 07:53:45;;;;;;;16.43;9.90;;;;;;;;;;5019070;28;20211;-70
2024/01/21 07:56:11;;;;;;;15.20;10.13;;;;;;;;;;5036188;28;20460;-70
2024/01/21 07:58:37;;;;;;;16.27;9.97;;;;;;;;;;5019753;28;20187;-68
2024/01/21 08:01:07;;;;;;;18.23;10.37;;;;;;;;;;5036819;28;20266;-68
2024/01/21 08:03:33;;;;;;;13.23;8.27;;;;;;;;;;5036686;28;20487;-69
2024/01/21 08:05:59;;;;;;;13.93;8.70;;;;;;;;;;5018685;28;20206;-71
2024/01/21 08:08:25;;;;;;;11.27;7.27;;;;;;;;;;5018622;28;20402;-70
2024/01/21 08:10:51;;;;;;;12.47;7.80;;;;;;;;;;5036176;28;20176;-68
2024/01/21 08:13:17;;;;;;;14.60;8.50;;;;;;;;;;5036071;28;20172;-68
2024/01/21 08:15:43;;;;;;;12.20;8.00;;;;;;;;;;5018189;28;20199;-68
2024/01/21 08:18:09;;;;;;;14.87;7.70;;;;;;;;;;5036091;28;20214;-68
2024/01/21 08:20:35;;;;;;;20.87;8.30;;;;;;;;;;5036160;28;20186;-68
2024/01/21 08:23:01;;;;;;;12.73;8.20;;;;;;;;;;5018594;28;20207;-70
2024/01/21 08:25:28;;;;;;;59.63;28.53;;;;;;;;;;5018232;28;20294;-70
2024/01/21 08:27:54;;;;;;;19.50;14.33;;;;;;;;;;5036067;28;20251;-69
2024/01/21 08:30:20;;;;;;;15.30;9.50;;;;;;;;;;5018098;28;20236;-69
2024/01/21 08:32:45;;;;;;;9.87;7.33;;;;;;;;;;5017933;28;20236;-70
2024/01/21 08:35:11;;;;;;;16.87;8.90;;;;;;;;;;5017827;28;20242;-69
2024/01/21 08:37:37;;;;;;;15.10;11.10;;;;;;;;;;5018046;28;20190;-69
2024/01/21 08:40:04;;;;;;;18.77;10.27;;;;;;;;;;5035531;28;20183;-69
2024/01/21 08:42:30;;;;;;;16.03;10.13;;;;;;;;;;5035253;28;20206;-70
2024/01/21 08:44:56;;;;;;;13.57;9.67;;;;;;;;;;5035372;28;20568;-69
2024/01/21 08:47:22;;;;;;;15.47;9.97;;;;;;;;;;5035239;28;20190;-69
2024/01/21 08:49:48;;;;;;;13.90;8.50;;;;;;;;;;5016729;28;20186;-70
2024/01/21 08:52:14;;;;;;;23.43;15.67;;;;;;;;;;5035599;28;20183;-69
2024/01/21 08:54:40;;;;;;;17.13;12.13;;;;;;;;;;5035489;28;20536;-70
2024/01/21 08:57:06;;;;;;;24.73;17.03;;;;;;;;;;5017540;28;20178;-70
2024/01/21 08:59:32;;;;;;;14.17;9.20;;;;;;;;;;5017653;28;20183;-70
2024/01/21 09:01:58;;;;;;;15.77;10.60;;;;;;;;;;5035786;28;20178;-70
2024/01/21 09:04:24;;;;;;;12.70;8.60;;;;;;;;;;5034821;28;20171;-70
2024/01/21 09:06:50;;;;;;;37.13;23.10;;;;;;;;;;5017033;28;20252;-71
2024/01/21 09:09:16;;;;;;;27.13;16.50;;;;;;;;;;5034665;28;20175;-70
2024/01/21 09:11:42;;;;;;;28.27;17.67;;;;;;;;;;5017185;28;20175;-69
2024/01/21 09:14:08;;;;;;;63.40;38.63;;;;;;;;;;5034818;28;20179;-69
2024/01/21 09:16:34;;;;;;;17.70;11.03;;;;;;;;;;5034844;28;20195;-69
2024/01/21 09:19:00;;;;;;;20.50;13.20;;;;;;;;;;5034733;28;20175;-69
2024/01/21 09:21:26;;;;;;;30.70;15.53;;;;;;;;;;5034585;28;20175;-70
2024/01/21 09:23:55;;;;;;;29.60;18.17;;;;;;;;;;5016654;28;20225;-69
2024/01/21 09:26:22;;;;;;;20.83;11.23;;;;;;;;;;5034741;28;20223;-69
2024/01/21 09:28:47;;;;;;;24.50;15.67;;;;;;;;;;5034752;28;20266;-71
2024/01/21 09:31:13;;;;;;;27.47;17.27;;;;;;;;;;5034406;28;20182;-71
2024/01/21 09:33:39;;;;;;;20.43;10.63;;;;;;;;;;5034561;28;20189;-69
2024/01/21 09:36:05;;;;;;;17.53;9.60;;;;;;;;;;5016727;28;20203;-70
2024/01/21 09:38:31;;;;;;;16.20;9.93;;;;;;;;;;5034398;28;20538;-69
2024/01/21 09:41:02;;;;;;;19.53;10.00;;;;;;;;;;5035195;28;20653;-70
2024/01/21 09:43:29;;;;;;;13.80;8.50;;;;;;;;;;5034651;28;20249;-69
2024/01/21 09:45:56;;;;;;;16.23;10.07;;;;;;;;;;5034313;28;20606;-69
2024/01/21 09:48:22;;;;;;;15.13;9.70;;;;;;;;;;5016405;28;20175;-69
2024/01/21 09:50:49;;;;;;;19.57;11.57;;;;;;;;;;5016538;28;20186;-69
2024/01/21 09:53:15;;;;;;;15.87;9.53;;;;;;;;;;5034213;28;20262;-69
2024/01/21 09:55:41;;;;;;;17.77;9.73;;;;;;;;;;5034139;28;20240;-69
2024/01/21 09:58:08;;;;;;;15.43;9.67;;;;;;;;;;5034976;28;20179;-70
2024/01/21 10:00:34;;;;;;;13.00;9.40;;;;;;;;;;5034373;28;20616;-70
2024/01/21 10:03:00;;;;;;;23.87;12.53;;;;;;;;;;5016526;28;20242;-70
2024/01/21 10:05:27;;;;;;;17.70;10.80;;;;;;;;;;5034322;28;20229;-70
2024/01/21 10:07:53;;;;;;;17.10;10.83;;;;;;;;;;5034151;28;20561;-70
2024/01/21 10:10:19;;;;;;;15.27;9.47;;;;;;;;;;5034002;28;20266;-70
2024/01/21 10:12:46;;;;;;;18.47;10.03;;;;;;;;;;5034055;28;20232;-70
2024/01/21 10:15:15;;;;;;;24.03;12.60;;;;;;;;;;5034085;28;20202;-70
2024/01/21 10:17:41;;;;;;;15.97;8.63;;;;;;;;;;5034275;28;20561;-70
2024/01/21 10:20:10;;;;;;;19.63;10.93;;;;;;;;;;5033989;28;20183;-70
2024/01/21 10:22:37;;;;;;;15.93;8.53;;;;;;;;;;5033862;28;20257;-70
2024/01/21 10:25:03;;;;;;;12.43;8.20;;;;;;;;;;5033554;28;20282;-70
2024/01/21 10:27:29;;;;;;;13.17;8.70;;;;;;;;;;5033768;28;20261;-70
2024/01/21 10:29:57;;;;;;;11.63;8.70;;;;;;;;;;5033922;28;20637;-70
2024/01/21 10:32:23;;;;;;;12.27;8.33;;;;;;;;;;5039186;28;20225;-70
2024/01/21 10:34:50;;;;;;;14.43;9.00;;;;;;;;;;5034456;28;20203;-70
2024/01/21 10:37:16;;;;;;;16.17;9.03;;;;;;;;;;5033862;28;20550;-70
2024/01/21 10:39:46;;;;;;;18.63;10.13;;;;;;;;;;5034088;28;20568;-70
2024/01/21 10:42:13;;;;;;;13.90;8.93;;;;;;;;;;5033805;28;20744;-70
2024/01/21 10:44:40;;;;;;;22.93;8.60;;;;;;;;;;5033795;28;20236;-70
2024/01/21 10:47:07;;;;;;;17.43;9.87;;;;;;;;;;5034045;28;20175;-72
2024/01/21 10:49:33;;;;;;;14.20;8.60;;;;;;;;;;5033952;28;20211;-70
2024/01/21 10:51:59;;;;;;;18.47;9.97;;;;;;;;;;5034073;28;20175;-70
2024/01/21 10:54:26;;;;;;;17.90;9.70;;;;;;;;;;5017259;28;20190;-70
2024/01/21 10:56:52;;;;;;;17.10;9.20;;;;;;;;;;5034547;28;20317;-71
2024/01/21 10:59:19;;;;;;;14.00;8.73;;;;;;;;;;5035658;28;20183;-70
2024/01/21 11:01:45;;;;;;;16.83;10.60;;;;;;;;;;5038406;28;20267;-70
2024/01/21 11:04:12;;;;;;;14.87;9.73;;;;;;;;;;5033265;28;20184;-71
2024/01/21 11:06:44;;;;;;;13.90;8.93;;;;;;;;;;5035445;28;20258;-70
2024/01/21 11:09:10;;;;;;;17.90;10.23;;;;;;;;;;5053686;28;20151;-70
2024/01/21 11:11:52;;;;;;;15.57;9.60;;;;;;;;;;5043187;28;20270;-70
2024/01/21 11:14:37;;;;;;;16.17;9.03;;;;;;;;;;5037354;28;20664;-70
2024/01/21 11:17:07;;;;;;;16.07;9.57;;;;;;;;;;5038169;28;20228;-70
2024/01/21 11:19:48;;;;;;;16.73;9.73;;;;;;;;;;5038910;28;20178;-70
2024/01/21 11:22:15;;;;;;;20.43;10.27;;;;;;;;;;5039285;28;20199;-70
2024/01/21 11:24:41;;;;;;;22.30;9.23;;;;;;;;;;5020752;28;20713;-70
2024/01/21 11:27:17;;;;;;;17.93;9.17;;;;;;;;;;5038588;28;20294;-71
2024/01/21 11:29:44;;;;;;;19.30;10.63;;;;;;;;;;5037312;28;20175;-70
2024/01/21 11:32:10;;;;;;;15.37;9.30;;;;;;;;;;5037268;28;20182;-70
2024/01/21 11:34:40;;;;;;;14.30;8.83;;;;;;;;;;5036973;28;20550;-70
2024/01/21 11:37:07;;;;;;;15.90;9.10;;;;;;;;;;5019208;28;20179;-71
2024/01/21 11:39:33;;;;;;;19.53;9.63;;;;;;;;;;5037345;28;20265;-70
2024/01/21 11:42:00;;;;;;;15.47;9.37;;;;;;;;;;5036922;28;20229;-70
2024/01/21 11:44:31;;;;;;;19.40;8.90;;;;;;;;;;5019084;28;20581;-70
2024/01/21 11:46:59;;;;;;;14.27;9.93;;;;;;;;;;5037038;28;20590;-70
2024/01/21 11:49:26;;;;;;;14.63;9.47;;;;;;;;;;5037599;28;20250;-70
2024/01/21 11:51:52;;;;;;;19.37;12.77;;;;;;;;;;5037309;28;20172;-70
2024/01/21 11:54:21;;;;;;;29.20;20.73;;;;;;;;;;5037157;28;20167;-70
2024/01/21 11:56:48;;;;;;;17.03;11.10;;;;;;;;;;5037056;28;20595;-70
2024/01/21 11:59:14;;;;;;;28.13;16.67;;;;;;;;;;5037025;28;20178;-70
2024/01/21 12:01:41;;;;;;;63.63;41.97;;;;;;;;;;5018952;28;20197;-70
2024/01/21 12:04:09;;;;;;;117.50;74.03;;;;;;;;;;5037006;28;20199;-70
2024/01/21 12:06:45;;;;;;;29.10;17.20;;;;;;;;;;5036820;28;20195;-70
2024/01/21 12:09:12;;;;;;;25.90;14.10;;;;;;;;;;5018805;28;20176;-70
2024/01/21 12:11:39;;;;;;;15.87;9.97;;;;;;;;;;5018737;28;20175;-70
2024/01/21 12:14:06;;;;;;;17.30;10.47;;;;;;;;;;5037673;28;20179;-70
2024/01/21 12:16:32;;;;;;;14.57;9.33;;;;;;;;;;5036729;28;20754;-72
2024/01/21 12:18:58;;;;;;;26.43;15.30;;;;;;;;;;5036712;28;20179;-70
2024/01/21 12:21:26;;;;;;;24.07;15.73;;;;;;;;;;5036643;28;20179;-70
2024/01/21 12:23:52;;;;;;;18.47;11.50;;;;;;;;;;5035986;28;20203;-70
2024/01/21 12:26:19;;;;;;;13.97;10.00;;;;;;;;;;5035330;28;20226;-70
2024/01/21 12:28:55;;;;;;;16.17;9.73;;;;;;;;;;5018197;28;20175;-70
2024/01/21 12:31:21;;;;;;;18.07;10.20;;;;;;;;;;5036302;28;20251;-70
2024/01/21 12:33:49;;;;;;;19.83;10.50;;;;;;;;;;5036512;28;20194;-70
2024/01/21 12:36:15;;;;;;;20.77;11.17;;;;;;;;;;5036652;28;20278;-70
2024/01/21 12:38:41;;;;;;;18.07;11.40;;;;;;;;;;5036104;28;20220;-70
2024/01/21 12:41:08;;;;;;;19.20;10.10;;;;;;;;;;5018440;28;20183;-70
2024/01/21 12:43:34;;;;;;;15.73;9.63;;;;;;;;;;5018569;28;20302;-70
2024/01/21 12:46:00;;;;;;;16.13;10.60;;;;;;;;;;5018102;28;20230;-70
2024/01/21 12:48:26;;;;;;;17.83;9.67;;;;;;;;;;5035941;28;20254;-70
2024/01/21 12:50:52;;;;;;;16.70;10.50;;;;;;;;;;5019227;28;20175;-70
2024/01/21 12:53:18;;;;;;;16.93;10.37;;;;;;;;;;5035529;28;20206;-70
2024/01/21 12:55:44;;;;;;;17.97;10.53;;;;;;;;;;5017739;28;20309;-70
2024/01/21 12:58:12;;;;;;;17.93;10.60;;;;;;;;;;5035741;28;20187;-70
2024/01/21 13:00:39;;;;;;;17.30;10.53;;;;;;;;;;5035842;28;20178;-70
2024/01/21 13:03:05;;;;;;;16.20;8.67;;;;;;;;;;5037207;28;20206;-69
2024/01/21 13:05:31;;;;;;;12.43;8.73;;;;;;;;;;5020807;28;20201;-69
2024/01/21 13:07:59;;;;;;;14.63;9.53;;;;;;;;;;5037320;28;20186;-69
2024/01/21 13:10:25;;;;;;;14.17;8.37;;;;;;;;;;5018762;28;20183;-69
2024/01/21 13:12:51;;;;;;;13.50;8.67;;;;;;;;;;5036637;28;20665;-69
2024/01/21 13:15:17;;;;;;;12.03;7.87;;;;;;;;;;5037040;28;20289;-68
2024/01/21 13:17:43;;;;;;;13.17;8.10;;;;;;;;;;5020210;28;20256;-68
2024/01/21 13:20:10;;;;;;;12.87;8.87;;;;;;;;;;5035699;28;20187;-69
2024/01/21 13:22:36;;;;;;;13.03;9.37;;;;;;;;;;5018183;28;20203;-69
2024/01/21 13:25:02;;;;;;;12.53;8.33;;;;;;;;;;5035576;28;20265;-69
2024/01/21 13:27:39;;;;;;;13.43;8.97;;;;;;;;;;5018074;28;20671;-70
2024/01/21 13:32:50;;;;;;;14.07;8.73;;;;;;;;;;5035739;28;20181;-70
2024/01/21 13:35:16;;;;;;;14.30;8.10;;;;;;;;;;5035469;28;20206;-69
2024/01/21 13:37:43;;;;;;;11.10;7.73;;;;;;;;;;5035935;28;20179;-69
2024/01/21 13:40:10;;;;;;;11.03;8.10;;;;;;;;;;5017844;28;20211;-69
2024/01/21 13:42:36;;;;;;;14.57;8.90;;;;;;;;;;5036063;28;20555;-69
2024/01/21 13:45:02;;;;;;;15.87;8.63;;;;;;;;;;5035881;28;20195;-69
2024/01/21 13:47:28;;;;;;;15.07;11.90;;;;;;;;;;5017655;28;20556;-69
2024/01/21 13:49:54;;;;;;;12.67;7.77;;;;;;;;;;5035570;28;20178;-69
2024/01/21 13:52:20;;;;;;;10.53;7.20;;;;;;;;;;5035481;28;20179;-69
2024/01/21 13:54:46;;;;;;;13.33;9.23;;;;;;;;;;5035401;28;20179;-69
2024/01/21 13:57:12;;;;;;;11.33;8.33;;;;;;;;;;5035824;28;20663;-69
2024/01/21 13:59:38;;;;;;;12.40;7.03;;;;;;;;;;5035152;28;20179;-69
2024/01/21 14:02:09;;;;;;;12.20;7.53;;;;;;;;;;5016916;28;20293;-69
2024/01/21 14:04:35;;;;;;;11.53;7.10;;;;;;;;;;5016761;28;20183;-70
2024/01/21 14:07:00;;;;;;;10.97;6.70;;;;;;;;;;5035957;28;20205;-69
2024/01/21 14:09:26;;;;;;;10.00;6.40;;;;;;;;;;5037149;28;20202;-69
2024/01/21 14:11:53;;;;;;;10.03;7.47;;;;;;;;;;5034445;28;20588;-69
2024/01/21 14:14:19;;;;;;;8.17;6.20;;;;;;;;;;5017376;28;20179;-69
2024/01/21 14:16:45;;;;;;;10.30;6.17;;;;;;;;;;5034841;28;20199;-69
2024/01/21 14:19:11;;;;;;;10.87;7.00;;;;;;;;;;5035099;28;20171;-69
2024/01/21 14:21:37;;;;;;;14.60;6.77;;;;;;;;;;5017229;28;20671;-69
2024/01/21 14:24:03;;;;;;;11.50;7.40;;;;;;;;;;5016406;28;20697;-69
2024/01/21 14:26:39;;;;;;;12.60;7.30;;;;;;;;;;5034111;28;20190;-69
2024/01/21 14:29:11;;;;;;;12.17;8.00;;;;;;;;;;5033731;28;20175;-69
2024/01/21 14:31:39;;;;;;;15.13;8.00;;;;;;;;;;5033832;28;20152;-69